Terminal Aerodrome Forecast
Issued by NWS Charleston, WV

Current Version | Previous Version | Graphics & Text | Print | Product List | Glossary On
Versions: 1 2 3 4 5 6 7 8 9 10 11 12 13 14 15 16 17 18 19 20 21 22 23 24 25 26
000
FTUS41 KRLX 251100
TAFBKW
TAF
KBKW 251133Z 2512/2612 30004KT P6SM BKN025 OVC035
     FM251800 26008KT P6SM SCT250
     FM252300 31004KT P6SM BKN250
     FM260500 18005KT P6SM BKN030
     FM260800 VRB03KT P6SM BKN013
     FM261100 00000KT 3SM -SN BR OVC010=

USA.gov is the U.S. government's official web portal to all federal, state and local government web resources and services.